createdAt,value
2018-04-19T00:00:49.187Z,53.71
2018-04-19T00:01:49.178Z,55.44
2018-04-19T00:02:49.169Z,53.91
2018-04-19T00:03:49.160Z,53.81
2018-04-19T00:04:49.153Z,53.91
2018-04-19T00:05:49.147Z,53.91
2018-04-19T00:06:49.145Z,54.28
2018-04-19T00:07:49.133Z,53.52
2018-04-19T00:08:49.123Z,54.00
2018-04-19T00:09:49.115Z,54.38
2018-04-19T00:10:49.108Z,54.10
2018-04-19T00:11:49.165Z,54.00
2018-04-19T00:12:49.100Z,54.00
2018-04-19T00:13:49.089Z,54.00
2018-04-19T00:14:49.081Z,54.38
2018-04-19T00:15:49.076Z,54.19
2018-04-19T00:16:49.064Z,54.00
2018-04-19T00:17:49.058Z,53.62
2018-04-19T00:18:49.050Z,54.00
2018-04-19T00:19:49.044Z,53.71
2018-04-19T00:20:49.040Z,54.19
2018-04-19T00:21:49.030Z,54.96
2018-04-19T00:22:49.030Z,55.44
2018-04-19T00:23:49.016Z,55.53
2018-04-19T00:24:49.013Z,54.00
2018-04-19T00:25:49.002Z,53.81
2018-04-19T00:26:48.994Z,55.15
2018-04-19T00:27:48.984Z,55.63
2018-04-19T00:28:48.978Z,54.96
2018-04-19T00:29:48.973Z,54.67
2018-04-19T00:30:48.969Z,56.10
2018-04-19T00:31:48.962Z,55.44
2018-04-19T00:32:48.954Z,55.15
2018-04-19T00:33:48.940Z,55.53
2018-04-19T00:34:48.939Z,55.60
2018-04-19T00:35:48.925Z,55.34
2018-04-19T00:36:48.920Z,56.87
2018-04-19T00:37:48.912Z,55.69
2018-04-19T00:38:48.905Z,56.65
2018-04-19T00:39:48.899Z,57.32
2018-04-19T00:40:48.889Z,56.94
2018-04-19T00:41:48.892Z,56.65
2018-04-19T00:42:48.875Z,56.84
2018-04-19T00:43:48.869Z,58.37
2018-04-19T00:44:48.859Z,58.47
2018-04-19T00:45:48.853Z,59.14
2018-04-19T00:46:48.857Z,57.23
2018-04-19T00:47:48.838Z,57.42
2018-04-19T00:48:48.830Z,59.43
2018-04-19T00:49:48.823Z,59.20
2018-04-19T00:50:48.818Z,59.01
2018-04-19T00:51:48.807Z,59.20
2018-04-19T00:52:48.806Z,59.20
2018-04-19T00:53:48.794Z,59.01
2018-04-19T00:54:48.789Z,59.88
2018-04-19T00:55:48.782Z,59.20
2018-04-19T00:56:48.781Z,58.92
2018-04-19T00:57:48.772Z,59.40
2018-04-19T00:58:48.758Z,59.69
2018-04-19T00:59:48.747Z,59.11
2018-04-19T01:00:48.747Z,59.49
2018-04-19T01:01:48.734Z,59.30
2018-04-19T01:02:48.726Z,59.97
2018-04-19T01:04:48.717Z,60.71
2018-04-19T01:05:48.708Z,60.90
2018-04-19T01:06:48.701Z,60.71
2018-04-19T01:07:48.695Z,61.19
2018-04-19T01:08:48.686Z,61.95
2018-04-19T01:09:48.693Z,61.95
2018-04-19T01:10:48.671Z,61.28
2018-04-19T01:11:48.661Z,61.66
2018-04-19T01:12:48.655Z,61.47
2018-04-19T01:13:48.646Z,62.71
2018-04-19T01:14:48.639Z,63.67
2018-04-19T01:15:48.632Z,63.76
2018-04-19T01:16:48.622Z,64.43
2018-04-19T01:17:48.616Z,63.76
2018-04-19T01:18:48.609Z,63.39
2018-04-19T01:19:48.600Z,63.10
2018-04-19T01:20:48.590Z,62.71
2018-04-19T01:21:48.583Z,62.81
2018-04-19T01:22:48.576Z,62.01
2018-04-19T01:23:48.573Z,62.40
2018-04-19T01:24:48.561Z,62.78
2018-04-19T01:25:48.554Z,63.00
2018-04-19T01:26:48.543Z,63.54
2018-04-19T01:28:48.529Z,63.83
2018-04-19T01:29:48.520Z,64.40
2018-04-19T01:30:48.512Z,64.69
2018-04-19T01:31:48.506Z,64.50
2018-04-19T01:32:48.494Z,65.93
2018-04-19T01:33:48.488Z,64.15
2018-04-19T01:34:48.484Z,64.05
2018-04-19T01:35:48.473Z,64.53
2018-04-19T01:36:48.464Z,65.01
2018-04-19T01:37:48.456Z,64.34
2018-04-19T01:38:48.447Z,64.25
2018-04-19T01:39:48.438Z,64.98
2018-04-19T01:40:48.432Z,65.36
2018-04-19T01:41:48.423Z,65.74
2018-04-19T01:42:48.416Z,66.70
2018-04-19T01:43:48.405Z,66.89
2018-04-19T01:44:48.402Z,67.94
2018-04-19T01:45:48.391Z,68.41
2018-04-19T01:46:48.382Z,68.32
2018-04-19T01:47:48.373Z,68.32
2018-04-19T01:48:48.367Z,67.75
2018-04-19T01:49:48.361Z,67.36
2018-04-19T01:50:48.353Z,68.10
2018-04-19T01:51:48.339Z,68.76
2018-04-19T01:52:48.330Z,69.72
2018-04-19T01:53:48.325Z,69.53
2018-04-19T01:54:48.318Z,69.56
2018-04-19T01:55:48.308Z,69.56
2018-04-19T01:56:48.298Z,68.32
2018-04-19T01:57:48.293Z,68.04
2018-04-19T01:58:48.284Z,65.84
2018-04-19T01:59:48.277Z,65.55
2018-04-19T02:00:48.265Z,65.93
2018-04-19T02:01:48.256Z,67.46
2018-04-19T02:02:48.249Z,67.71
2018-04-19T02:03:48.242Z,67.81
2018-04-19T02:04:48.231Z,67.81
2018-04-19T02:05:48.222Z,68.10
2018-04-19T02:06:48.217Z,68.67
2018-04-19T02:07:48.208Z,69.34
2018-04-19T02:08:48.199Z,69.62
2018-04-19T02:09:48.193Z,68.76
2018-04-19T02:10:48.179Z,68.57
2018-04-19T02:11:48.176Z,68.76
2018-04-19T02:12:48.165Z,68.48
2018-04-19T02:13:48.157Z,68.76
2018-04-19T02:14:48.147Z,68.86
2018-04-19T02:15:48.142Z,68.86
2018-04-19T02:16:48.128Z,68.10
2018-04-19T02:17:48.121Z,66.76
2018-04-19T02:18:48.117Z,67.91
2018-04-19T02:19:48.101Z,69.05
2018-04-19T02:20:48.095Z,69.82
2018-04-19T02:21:48.088Z,69.72
2018-04-19T02:22:48.078Z,69.53
2018-04-19T02:23:48.069Z,69.53
2018-04-19T02:24:48.060Z,69.24
2018-04-19T02:25:48.053Z,70.20
2018-04-19T02:26:48.044Z,70.07
2018-04-19T02:27:48.033Z,70.20
2018-04-19T02:28:48.028Z,71.12
2018-04-19T02:29:48.016Z,70.07
2018-04-19T02:30:48.010Z,69.43
2018-04-19T02:31:48.003Z,70.16
2018-04-19T02:32:47.991Z,70.26
2018-04-19T02:33:47.982Z,70.29
2018-04-19T02:34:47.972Z,70.07
2018-04-19T02:35:48.037Z,70.64
2018-04-19T02:36:47.958Z,72.07
2018-04-19T02:37:47.948Z,72.26
2018-04-19T02:38:47.940Z,70.92
2018-04-19T02:39:47.931Z,69.49
2018-04-19T02:40:47.922Z,69.97
2018-04-19T02:41:47.914Z,70.26
2018-04-19T02:42:47.905Z,70.45
2018-04-19T02:43:47.892Z,70.64
2018-04-19T02:44:47.886Z,70.54
2018-04-19T02:45:47.876Z,68.73
2018-04-19T02:46:47.867Z,68.44
2018-04-19T02:47:47.860Z,69.21
2018-04-19T02:48:47.853Z,69.68
2018-04-19T02:49:47.844Z,70.16
2018-04-19T02:50:47.833Z,71.02
2018-04-19T02:51:47.847Z,70.83
2018-04-19T02:52:47.813Z,71.02
2018-04-19T02:53:47.805Z,70.54
2018-04-19T02:54:47.799Z,71.12
2018-04-19T02:55:47.786Z,70.54
2018-04-19T02:56:47.778Z,70.73
2018-04-19T02:57:47.799Z,70.54
2018-04-19T02:58:47.760Z,71.12
2018-04-19T02:59:47.750Z,70.64
2018-04-19T03:00:47.740Z,70.64
2018-04-19T03:01:47.737Z,70.16
2018-04-19T03:02:47.727Z,70.26
2018-04-19T03:03:47.716Z,70.73
2018-04-19T03:04:47.708Z,69.78
2018-04-19T03:05:47.700Z,70.07
2018-04-19T03:06:47.689Z,70.73
2018-04-19T03:07:47.679Z,69.87
2018-04-19T03:08:47.671Z,70.73
2018-04-19T03:09:47.912Z,71.02
2018-04-19T03:10:47.654Z,72.17
2018-04-19T03:11:47.648Z,71.50
2018-04-19T03:12:47.633Z,71.69
2018-04-19T03:13:47.627Z,71.46
2018-04-19T03:14:47.619Z,72.23
2018-04-19T03:15:47.607Z,72.03
2018-04-19T03:16:47.603Z,72.99
2018-04-19T03:17:47.588Z,72.99
2018-04-19T03:18:47.579Z,73.08
2018-04-19T03:19:47.571Z,73.56
2018-04-19T03:20:47.565Z,74.23
2018-04-19T03:21:47.562Z,74.42
2018-04-19T03:22:47.543Z,74.23
2018-04-19T03:23:47.535Z,74.32
2018-04-19T03:24:47.526Z,74.23
2018-04-19T03:25:47.517Z,72.99
2018-04-19T03:26:47.508Z,73.56
2018-04-19T03:27:47.500Z,73.47
2018-04-19T03:28:47.487Z,73.08
2018-04-19T03:29:47.482Z,71.94
2018-04-19T03:30:47.469Z,71.94
2018-04-19T03:31:47.461Z,72.61
2018-04-19T03:32:47.451Z,73.75
2018-04-19T03:33:47.442Z,73.75
2018-04-19T03:34:47.435Z,73.75
2018-04-19T03:35:47.426Z,73.47
2018-04-19T03:36:47.412Z,73.47
2018-04-19T03:37:47.406Z,73.56
2018-04-19T03:38:47.399Z,74.32
2018-04-19T03:39:47.388Z,74.23
2018-04-19T03:40:47.384Z,74.32
2018-04-19T03:41:47.366Z,74.32
2018-04-19T03:42:47.358Z,74.42
2018-04-19T03:43:47.349Z,74.80
2018-04-19T03:44:47.342Z,75.09
2018-04-19T03:45:47.334Z,74.90
2018-04-19T03:46:47.321Z,74.86
2018-04-19T03:47:47.310Z,74.86
2018-04-19T03:48:47.301Z,75.24
2018-04-19T03:49:47.294Z,75.43
2018-04-19T03:50:47.283Z,75.53
2018-04-19T03:51:47.272Z,75.81
2018-04-19T03:52:47.266Z,76.48
2018-04-19T03:53:47.255Z,76.29
2018-04-19T03:54:47.245Z,76.86
2018-04-19T03:55:47.238Z,76.86
2018-04-19T03:56:47.230Z,76.86
2018-04-19T03:57:47.217Z,76.86
2018-04-19T03:58:47.211Z,77.06
2018-04-19T03:59:47.201Z,76.48
2018-04-19T04:00:47.189Z,76.86
2018-04-19T04:01:47.182Z,75.81
2018-04-19T04:02:47.170Z,76.20
2018-04-19T04:03:47.160Z,76.10
2018-04-19T04:04:47.152Z,76.39
2018-04-19T04:05:47.148Z,75.53
2018-04-19T04:06:47.131Z,75.91
2018-04-19T04:07:47.122Z,76.86
2018-04-19T04:08:47.115Z,76.48
2018-04-19T04:09:47.103Z,76.29
2018-04-19T04:10:47.095Z,76.57
2018-04-19T04:11:47.083Z,76.77
2018-04-19T04:12:47.074Z,76.39
2018-04-19T04:13:47.067Z,76.57
2018-04-19T04:14:47.054Z,76.86
2018-04-19T04:15:47.049Z,77.06
2018-04-19T04:16:47.035Z,77.53
2018-04-19T04:17:47.027Z,77.34
2018-04-19T04:18:47.016Z,77.15
2018-04-19T04:19:47.007Z,77.53
2018-04-19T04:20:46.997Z,77.06
2018-04-19T04:21:46.987Z,77.44
2018-04-19T04:22:46.980Z,77.06
2018-04-19T04:23:46.967Z,77.44
2018-04-19T04:24:46.958Z,77.62
2018-04-19T04:25:46.946Z,77.72
2018-04-19T04:26:46.942Z,78.10
2018-04-19T04:27:46.933Z,78.86
2018-04-19T04:28:46.917Z,78.67
2018-04-19T04:29:46.914Z,79.15
2018-04-19T04:30:46.900Z,78.86
2018-04-19T04:31:46.890Z,79.25
2018-04-19T04:32:46.879Z,78.58
2018-04-19T04:33:46.870Z,78.39
2018-04-19T04:34:46.861Z,78.39
2018-04-19T04:35:46.852Z,77.62
2018-04-19T04:36:46.839Z,77.34
2018-04-19T04:37:46.833Z,77.15
2018-04-19T04:38:46.819Z,77.06
2018-04-19T04:39:46.809Z,76.86
2018-04-19T04:40:46.802Z,76.20
2018-04-19T04:41:46.790Z,76.20
2018-04-19T04:42:46.783Z,76.48
2018-04-19T04:43:46.771Z,75.81
2018-04-19T04:44:46.760Z,75.43
2018-04-19T04:45:46.750Z,75.81
2018-04-19T04:46:46.745Z,75.81
2018-04-19T04:47:46.747Z,76.48
2018-04-19T04:48:46.724Z,76.39
2018-04-19T04:49:46.714Z,76.01
2018-04-19T04:50:46.703Z,75.62
2018-04-19T04:51:46.695Z,74.48
2018-04-19T04:52:46.682Z,74.57
2018-04-19T04:53:46.673Z,74.29
2018-04-19T04:54:46.665Z,75.05
2018-04-19T04:55:46.654Z,75.34
2018-04-19T04:56:46.647Z,75.72
2018-04-19T04:57:46.640Z,75.34
2018-04-19T04:58:46.625Z,76.01
2018-04-19T04:59:46.614Z,75.91
2018-04-19T05:00:46.606Z,76.01
2018-04-19T05:01:46.596Z,75.72
2018-04-19T05:02:46.584Z,76.01
2018-04-19T05:03:46.576Z,75.81
2018-04-19T05:04:46.569Z,74.90
2018-04-19T05:05:46.611Z,73.37
2018-04-19T05:06:46.548Z,73.69
2018-04-19T05:07:46.536Z,73.12
2018-04-19T05:08:46.531Z,72.20
2018-04-19T05:09:46.516Z,72.20
2018-04-19T05:10:46.509Z,72.39
2018-04-19T05:11:46.496Z,72.30
2018-04-19T05:12:46.488Z,72.20
2018-04-19T05:13:46.479Z,71.82
2018-04-19T05:14:46.470Z,72.49
2018-04-19T05:15:46.458Z,72.33
2018-04-19T05:16:46.456Z,70.33
2018-04-19T05:17:46.442Z,71.28
2018-04-19T05:18:46.433Z,69.18
2018-04-19T05:19:46.424Z,69.95
2018-04-19T05:20:46.414Z,66.99
2018-04-19T05:21:46.407Z,66.99
2018-04-19T05:22:46.397Z,66.70
2018-04-19T05:23:46.384Z,67.49
2018-04-19T05:24:46.380Z,67.02
2018-04-19T05:25:46.371Z,65.68
2018-04-19T05:26:46.360Z,65.20
2018-04-19T05:27:46.356Z,66.44
2018-04-19T05:28:46.348Z,66.54
2018-04-19T05:29:46.334Z,65.68
2018-04-19T05:30:46.328Z,64.56
2018-04-19T05:31:46.334Z,63.80
2018-04-19T05:32:46.309Z,64.75
2018-04-19T05:33:46.300Z,64.75
2018-04-19T05:34:46.290Z,64.56
2018-04-19T05:35:46.283Z,63.99
2018-04-19T05:36:46.277Z,63.42
2018-04-19T05:37:46.267Z,63.51
2018-04-19T05:38:46.260Z,64.37
2018-04-19T05:39:46.248Z,63.32
2018-04-19T05:40:46.243Z,63.99
2018-04-19T05:41:46.241Z,64.37
2018-04-19T05:42:46.229Z,64.85
2018-04-19T05:43:46.213Z,65.23
2018-04-19T05:44:46.210Z,65.81
2018-04-19T05:45:46.206Z,65.33
2018-04-19T05:46:46.192Z,65.42
2018-04-19T05:47:46.187Z,65.84
2018-04-19T05:48:46.177Z,65.45
2018-04-19T05:49:46.170Z,64.69
2018-04-19T05:50:46.160Z,64.59
2018-04-19T05:51:46.155Z,64.40
2018-04-19T05:52:46.144Z,63.54
2018-04-19T05:53:46.138Z,62.11
2018-04-19T05:54:46.131Z,63.73
2018-04-19T05:55:46.122Z,64.12
2018-04-19T05:56:46.112Z,64.50
2018-04-19T05:57:46.108Z,64.05
2018-04-19T05:58:46.103Z,63.10
2018-04-19T05:59:46.095Z,63.10
2018-04-19T06:00:46.085Z,63.19
2018-04-19T06:01:46.078Z,62.90
2018-04-19T06:02:46.075Z,62.71
2018-04-19T06:03:46.065Z,62.33
2018-04-19T06:04:46.055Z,62.14
2018-04-19T06:05:46.049Z,63.57
2018-04-19T06:06:46.043Z,61.37
2018-04-19T06:07:46.032Z,60.99
2018-04-19T06:08:46.027Z,62.65
2018-04-19T06:09:46.019Z,61.18
2018-04-19T06:10:46.019Z,61.02
2018-04-19T06:11:46.006Z,61.60
2018-04-19T06:12:46.002Z,61.60
2018-04-19T06:13:45.992Z,61.11
2018-04-19T06:14:45.984Z,61.02
2018-04-19T06:15:45.979Z,59.77
2018-04-19T06:16:45.974Z,60.54
2018-04-19T06:17:45.965Z,61.11
2018-04-19T06:18:45.956Z,60.57
2018-04-19T06:19:45.953Z,59.52
2018-04-19T06:20:45.947Z,60.38
2018-04-19T06:21:45.936Z,58.75
2018-04-19T06:22:45.934Z,59.33
2018-04-19T06:23:45.925Z,59.36
2018-04-19T06:24:45.919Z,57.34
2018-04-19T06:25:45.915Z,57.31
2018-04-19T06:26:45.909Z,57.89
2018-04-19T06:27:45.899Z,57.98
2018-04-19T06:28:45.893Z,58.11
2018-04-19T06:29:45.887Z,57.03
2018-04-19T06:30:45.880Z,56.45
2018-04-19T06:31:45.881Z,58.17
2018-04-19T06:32:45.869Z,57.41
2018-04-19T06:33:45.866Z,58.08
2018-04-19T06:34:45.866Z,58.27
2018-04-19T06:35:45.849Z,58.08
2018-04-19T06:36:45.844Z,57.60
2018-04-19T06:37:45.836Z,57.79
2018-04-19T06:38:45.832Z,58.08
2018-04-19T06:39:45.823Z,57.12
2018-04-19T06:40:45.818Z,57.50
2018-04-19T06:41:45.811Z,58.20
2018-04-19T06:42:45.808Z,57.24
2018-04-19T06:43:45.799Z,56.93
2018-04-19T06:44:45.796Z,57.53
2018-04-19T06:45:45.785Z,57.43
2018-04-19T06:46:45.783Z,57.43
2018-04-19T06:47:45.779Z,57.15
2018-04-19T06:48:45.771Z,57.82
2018-04-19T06:49:45.763Z,57.06
2018-04-19T06:50:45.759Z,55.90
2018-04-19T06:51:45.751Z,55.23
2018-04-19T06:52:45.746Z,56.09
2018-04-19T06:53:45.742Z,56.09
2018-04-19T06:54:45.737Z,55.52
2018-04-19T06:55:45.728Z,55.52
2018-04-19T06:56:45.725Z,56.09
2018-04-19T06:57:45.716Z,55.74
2018-04-19T06:58:45.716Z,55.80
2018-04-19T06:59:45.707Z,56.22
2018-04-19T07:00:45.704Z,55.90
2018-04-19T07:01:45.696Z,55.83
2018-04-19T07:02:45.693Z,56.02
2018-04-19T07:03:45.687Z,54.49
2018-04-19T07:04:45.677Z,54.97
2018-04-19T07:05:45.673Z,54.78
2018-04-19T07:06:45.669Z,54.11
2018-04-19T07:07:45.660Z,54.97
2018-04-19T07:08:45.658Z,53.72
2018-04-19T07:09:45.652Z,54.39
2018-04-19T07:10:45.646Z,54.97
2018-04-19T07:11:45.641Z,54.58
2018-04-19T07:12:45.637Z,54.78
2018-04-19T07:13:45.631Z,53.24
2018-04-19T07:14:45.653Z,53.44
2018-04-19T07:15:45.618Z,53.56
2018-04-19T07:16:45.614Z,54.04
2018-04-19T07:17:45.609Z,54.42
2018-04-19T07:18:45.603Z,53.94
2018-04-19T07:19:45.599Z,53.85
2018-04-19T07:20:45.594Z,53.66
2018-04-19T07:21:45.588Z,52.72
2018-04-19T07:22:45.586Z,53.11
2018-04-19T07:23:45.582Z,53.01
2018-04-19T07:24:45.571Z,51.76
2018-04-19T07:25:45.581Z,53.01
2018-04-19T07:26:45.565Z,52.14
2018-04-19T07:27:45.552Z,52.43
2018-04-19T07:28:45.551Z,51.86
2018-04-19T07:29:45.550Z,51.21
2018-04-19T07:30:45.544Z,51.18
2018-04-19T07:31:45.538Z,51.02
2018-04-19T07:32:45.530Z,50.44
2018-04-19T07:33:45.527Z,50.73
2018-04-19T07:34:45.529Z,50.54
2018-04-19T07:35:45.520Z,50.54
2018-04-19T07:36:45.512Z,51.02
2018-04-19T07:37:45.507Z,50.92
2018-04-19T07:38:45.507Z,51.11
2018-04-19T07:39:45.497Z,51.02
2018-04-19T07:40:45.493Z,51.31
2018-04-19T07:41:45.492Z,50.44
2018-04-19T07:42:45.485Z,49.87
2018-04-19T07:43:45.479Z,50.44
2018-04-19T07:44:45.473Z,49.99
2018-04-19T07:45:45.470Z,50.08
2018-04-19T07:46:45.470Z,49.89
2018-04-19T07:47:45.462Z,49.22
2018-04-19T07:48:45.457Z,50.08
2018-04-19T07:49:45.451Z,49.51
2018-04-19T07:50:45.448Z,49.12
2018-04-19T07:51:45.443Z,48.85
2018-04-19T07:52:45.435Z,48.28
2018-04-19T07:53:45.431Z,48.66
2018-04-19T07:54:45.428Z,48.08
2018-04-19T07:55:45.421Z,47.41
2018-04-19T07:56:45.420Z,46.45
2018-04-19T07:57:45.416Z,45.90
2018-04-19T07:58:45.414Z,44.84
2018-04-19T07:59:45.405Z,44.91
2018-04-19T08:00:45.403Z,45.10
2018-04-19T08:01:45.398Z,44.55
2018-04-19T08:02:45.394Z,44.35
2018-04-19T08:03:45.393Z,44.17
2018-04-19T08:04:45.386Z,43.78
2018-04-19T08:05:45.381Z,44.55
2018-04-19T08:06:45.379Z,44.84
2018-04-19T08:07:45.370Z,44.09
2018-04-19T08:08:45.368Z,43.61
2018-04-19T08:09:45.366Z,42.84
2018-04-19T08:10:45.361Z,42.36
2018-04-19T08:11:45.356Z,42.65
2018-04-19T08:12:45.351Z,42.65
2018-04-19T08:13:45.348Z,42.07
2018-04-19T08:14:45.346Z,43.13
2018-04-19T08:15:45.341Z,43.99
2018-04-19T08:16:45.338Z,43.41
2018-04-19T08:17:45.332Z,42.36
2018-04-19T08:18:45.333Z,42.74
2018-04-19T08:19:45.324Z,42.84
2018-04-19T08:20:45.321Z,43.15
2018-04-19T08:21:45.319Z,43.82
2018-04-19T08:22:45.313Z,43.34
2018-04-19T08:23:45.311Z,42.96
2018-04-19T08:24:45.308Z,42.28
2018-04-19T08:25:45.304Z,41.89
2018-04-19T08:26:45.301Z,42.09
2018-04-19T08:27:45.296Z,42.28
2018-04-19T08:28:45.291Z,42.86
2018-04-19T08:29:45.290Z,41.99
2018-04-19T08:30:45.286Z,42.19
2018-04-19T08:31:45.282Z,41.99
2018-04-19T08:32:45.278Z,41.63
2018-04-19T08:33:45.276Z,41.44
2018-04-19T08:34:45.271Z,40.66
2018-04-19T08:35:45.266Z,40.76
2018-04-19T08:36:45.264Z,40.09
2018-04-19T08:37:45.261Z,40.28
2018-04-19T08:38:45.255Z,40.76
2018-04-19T08:39:45.253Z,40.19
2018-04-19T08:40:45.249Z,39.89
2018-04-19T08:41:45.245Z,39.79
2018-04-19T08:42:45.246Z,39.61
2018-04-19T08:43:45.238Z,39.22
2018-04-19T08:44:45.238Z,39.70
2018-04-19T08:45:45.232Z,39.89
2018-04-19T08:46:45.232Z,40.19
2018-04-19T08:47:45.228Z,39.34
2018-04-19T08:48:45.223Z,39.91
2018-04-19T08:49:45.227Z,39.72
2018-04-19T08:50:45.217Z,38.95
2018-04-19T08:51:45.212Z,39.43
2018-04-19T08:52:45.211Z,39.53
2018-04-19T08:53:45.207Z,38.95
2018-04-19T08:54:45.203Z,38.68
2018-04-19T08:55:45.201Z,38.28
2018-04-19T08:56:45.198Z,38.58
2018-04-19T08:57:45.195Z,38.68
2018-04-19T08:58:45.193Z,38.85
2018-04-19T08:59:45.185Z,39.06
2018-04-19T09:00:45.188Z,38.97
2018-04-19T09:01:45.184Z,38.97
2018-04-19T09:02:45.216Z,38.78
2018-04-19T09:03:45.178Z,38.68
2018-04-19T09:04:45.175Z,39.26
2018-04-19T09:05:45.170Z,38.58
2018-04-19T09:06:45.168Z,38.78
2018-04-19T09:07:45.165Z,39.45
2018-04-19T09:08:45.161Z,39.36
2018-04-19T09:09:45.160Z,39.64
2018-04-19T09:10:45.155Z,39.66
2018-04-19T09:11:45.153Z,38.70
2018-04-19T09:12:45.148Z,37.83
2018-04-19T09:13:45.150Z,38.02
2018-04-19T09:14:45.149Z,37.63
2018-04-19T09:15:45.144Z,37.63
2018-04-19T09:16:45.141Z,37.93
2018-04-19T09:17:45.146Z,38.70
2018-04-19T09:18:45.136Z,38.41
2018-04-19T09:19:45.129Z,38.41
2018-04-19T09:20:45.129Z,37.73
2018-04-19T09:21:45.129Z,37.83
2018-04-19T09:22:45.125Z,38.21
2018-04-19T09:23:45.121Z,39.18
2018-04-19T09:24:45.120Z,38.60
2018-04-19T09:25:45.118Z,38.21
2018-04-19T09:26:45.134Z,38.39
2018-04-19T09:27:45.110Z,38.49
2018-04-19T09:28:45.107Z,38.79
2018-04-19T09:29:45.106Z,38.51
2018-04-19T09:30:45.104Z,38.60
2018-04-19T09:31:45.103Z,38.58
2018-04-19T09:32:45.098Z,38.78
2018-04-19T09:33:45.099Z,38.85
2018-04-19T09:34:45.093Z,38.58
2018-04-19T09:35:45.104Z,39.54
2018-04-19T09:36:45.087Z,39.16
2018-04-19T09:37:45.091Z,39.16
2018-04-19T09:38:45.124Z,38.68
2018-04-19T09:39:45.079Z,38.78
2018-04-19T09:40:45.080Z,38.68
2018-04-19T09:41:45.077Z,38.68
2018-04-19T09:42:45.072Z,39.86
2018-04-19T09:43:45.069Z,39.86
2018-04-19T09:44:45.072Z,39.66
2018-04-19T09:45:45.065Z,39.18
2018-04-19T09:46:45.071Z,38.21
2018-04-19T09:47:45.060Z,38.12
2018-04-19T09:48:45.057Z,38.58
2018-04-19T09:49:45.053Z,39.62
2018-04-19T09:50:45.051Z,40.01
2018-04-19T09:51:45.048Z,40.78
2018-04-19T09:52:45.047Z,40.69
2018-04-19T09:53:45.057Z,40.70
2018-04-19T09:54:45.040Z,40.70
2018-04-19T09:55:45.038Z,40.70
2018-04-19T09:56:45.034Z,39.84
2018-04-19T09:57:45.039Z,40.80
2018-04-19T09:58:45.035Z,40.22
2018-04-19T09:59:45.028Z,39.74
2018-04-19T10:00:45.025Z,39.16
2018-04-19T10:01:45.022Z,39.94
2018-04-19T10:02:45.016Z,40.88
2018-04-19T10:03:45.015Z,41.17
2018-04-19T10:04:45.012Z,40.80
2018-04-19T10:05:45.008Z,40.32
2018-04-19T10:06:45.008Z,40.05
2018-04-19T10:07:45.011Z,39.37
2018-04-19T10:08:45.004Z,39.86
2018-04-19T10:09:44.996Z,40.63
2018-04-19T10:10:44.995Z,39.95
2018-04-19T10:11:44.992Z,39.57
2018-04-19T10:12:44.988Z,39.87
2018-04-19T10:13:44.987Z,39.87
2018-04-19T10:14:44.986Z,38.71
2018-04-19T10:15:44.981Z,39.57
2018-04-19T10:16:44.982Z,40.84
2018-04-19T10:17:44.976Z,40.65
2018-04-19T10:18:44.975Z,40.07
2018-04-19T10:19:44.970Z,39.29
2018-04-19T10:20:44.970Z,40.17
2018-04-19T10:21:44.969Z,40.19
2018-04-19T10:22:44.966Z,39.51
2018-04-19T10:23:44.964Z,39.12
2018-04-19T10:24:44.959Z,39.32
2018-04-19T10:25:44.957Z,38.83
2018-04-19T10:26:44.955Z,39.03
2018-04-19T10:27:44.954Z,38.66
2018-04-19T10:28:44.952Z,38.74
2018-04-19T10:29:44.949Z,39.24
2018-04-19T10:30:44.950Z,38.66
2018-04-19T10:31:44.947Z,38.95
2018-04-19T10:32:44.944Z,38.68
2018-04-19T10:38:55.220Z,37.12
2018-04-19T10:39:54.936Z,37.12
2018-04-19T10:40:54.925Z,37.79
2018-04-19T10:41:54.920Z,38.28
2018-04-19T10:42:54.919Z,37.87
2018-04-19T10:43:54.917Z,37.87
2018-04-19T10:44:54.920Z,38.16
2018-04-19T10:45:54.931Z,38.06
2018-04-19T10:46:54.916Z,38.35
2018-04-19T10:47:54.914Z,38.56
2018-04-19T10:48:54.916Z,37.88
2018-04-19T10:49:54.915Z,37.50
2018-04-19T10:50:54.916Z,37.40
2018-04-19T10:51:54.915Z,37.79
2018-04-19T10:52:54.913Z,37.60
2018-04-19T10:53:54.912Z,38.48
2018-04-19T10:54:54.914Z,38.39
2018-04-19T10:55:54.918Z,37.23
2018-04-19T10:56:54.914Z,35.58
2018-04-19T10:57:54.917Z,35.31
2018-04-19T10:58:54.921Z,35.60
2018-04-19T10:59:54.915Z,36.08
2018-04-19T11:00:54.923Z,36.28
2018-04-19T11:01:54.916Z,36.84
2018-04-19T11:02:54.918Z,36.86
2018-04-19T11:03:54.915Z,36.96
2018-04-19T11:04:54.920Z,35.80
2018-04-19T11:05:54.920Z,35.80
2018-04-19T11:06:54.919Z,36.18
2018-04-19T11:07:54.920Z,34.34
2018-04-19T11:08:54.923Z,34.33
2018-04-19T11:09:54.923Z,35.68
2018-04-19T11:10:54.924Z,35.10
2018-04-19T11:11:54.923Z,35.00
2018-04-19T11:12:54.924Z,34.62
2018-04-19T11:13:54.930Z,35.68
2018-04-19T11:14:54.926Z,35.49
2018-04-19T11:15:54.978Z,35.08
2018-04-19T11:16:54.929Z,35.57
2018-04-19T11:17:54.927Z,36.15
2018-04-19T11:18:54.930Z,36.05
2018-04-19T11:19:54.931Z,36.84
2018-04-19T11:20:54.930Z,37.04
2018-04-19T11:21:54.934Z,35.68
2018-04-19T11:22:54.933Z,35.21
2018-04-19T11:23:54.935Z,35.80
2018-04-19T11:24:54.937Z,35.60
2018-04-19T11:25:54.937Z,34.05
2018-04-19T11:26:54.938Z,33.87
2018-04-19T11:27:54.936Z,33.97
2018-04-19T11:28:54.941Z,34.94
2018-04-19T11:29:54.939Z,33.29
2018-04-19T11:30:54.978Z,32.23
2018-04-19T11:31:54.943Z,31.96
2018-04-19T11:32:54.942Z,31.96
2018-04-19T11:33:54.944Z,32.54
2018-04-19T11:34:54.944Z,30.99
2018-04-19T11:35:54.952Z,30.69
2018-04-19T11:36:54.947Z,30.69
2018-04-19T11:37:54.948Z,30.89
2018-04-19T11:38:54.952Z,32.06
2018-04-19T11:39:54.952Z,32.94
2018-04-19T11:40:54.952Z,31.87
2018-04-19T11:41:54.954Z,31.18
2018-04-19T11:42:54.956Z,31.09
2018-04-19T11:43:54.959Z,32.92
2018-04-19T11:44:54.958Z,33.12
2018-04-19T11:45:54.961Z,33.22
2018-04-19T11:46:54.964Z,32.56
2018-04-19T11:47:54.969Z,31.49
2018-04-19T11:48:54.965Z,31.01
2018-04-19T11:49:54.967Z,30.44
2018-04-19T11:50:54.964Z,31.41
2018-04-19T11:51:55.575Z,30.44
2018-04-19T11:52:54.973Z,30.54
2018-04-19T11:53:54.982Z,30.54
2018-04-19T11:54:55.581Z,31.60
2018-04-19T11:55:54.977Z,32.18
2018-04-19T11:56:54.979Z,31.79
2018-04-19T11:57:54.982Z,30.94
2018-04-19T11:58:54.980Z,30.84
2018-04-19T11:59:54.986Z,30.35
2018-04-19T12:00:54.999Z,29.50
2018-04-19T12:01:54.988Z,30.18
2018-04-19T12:02:54.986Z,29.79
2018-04-19T12:03:54.989Z,29.88
2018-04-19T12:04:54.988Z,29.88
2018-04-19T12:05:54.990Z,29.50
2018-04-19T12:06:54.988Z,29.30
2018-04-19T12:07:54.990Z,29.30
2018-04-19T12:08:54.992Z,28.91
2018-04-19T12:09:54.992Z,29.21
2018-04-19T12:10:54.994Z,28.81
2018-04-19T12:11:54.991Z,29.60
2018-04-19T12:12:54.995Z,29.60
2018-04-19T12:13:54.991Z,29.88
2018-04-19T12:14:54.993Z,29.79
2018-04-19T12:15:54.993Z,29.90
2018-04-19T12:16:54.993Z,28.83
2018-04-19T12:17:54.992Z,29.32
2018-04-19T12:18:54.993Z,28.54
2018-04-19T12:19:54.993Z,29.32
2018-04-19T12:20:54.993Z,29.61
2018-04-19T12:21:54.994Z,29.62
2018-04-19T12:22:54.995Z,28.75
2018-04-19T12:23:54.992Z,28.64
2018-04-19T12:24:54.996Z,27.87
2018-04-19T12:25:55.003Z,27.86
2018-04-19T12:26:54.998Z,27.97
2018-04-19T12:27:54.997Z,28.65
2018-04-19T12:28:54.994Z,28.36
2018-04-19T12:29:54.993Z,28.26
2018-04-19T12:30:54.995Z,28.17
2018-04-19T12:31:54.998Z,28.45
2018-04-19T12:32:54.995Z,28.45
2018-04-19T12:33:54.996Z,29.04
2018-04-19T12:34:54.995Z,28.26
2018-04-19T12:35:54.999Z,29.24
2018-04-19T12:36:54.996Z,28.57
2018-04-19T12:37:55.000Z,27.87
2018-04-19T12:38:54.997Z,28.08
2018-04-19T12:39:54.998Z,27.79
2018-04-19T12:40:55.000Z,27.31
2018-04-19T12:41:54.996Z,27.59
2018-04-19T12:42:54.995Z,26.81
2018-04-19T12:43:55.002Z,26.92
2018-04-19T12:44:54.999Z,27.01
2018-04-19T12:45:54.999Z,27.31
2018-04-19T12:46:55.000Z,27.79
2018-04-19T12:47:54.997Z,27.21
2018-04-19T12:48:55.003Z,26.90
2018-04-19T12:49:55.002Z,26.81
2018-04-19T12:50:55.000Z,26.62
2018-04-19T12:51:55.002Z,26.04
2018-04-19T12:52:55.009Z,25.46
2018-04-19T12:53:55.002Z,25.84
2018-04-19T12:54:55.003Z,25.75
2018-04-19T12:55:55.005Z,24.78
2018-04-19T12:56:55.004Z,24.68
2018-04-19T12:57:55.007Z,25.16
2018-04-19T12:58:55.007Z,24.87
2018-04-19T12:59:55.006Z,23.90